Time;durP1;ratioP1;P1;durP2;ratioP2;P2;SDS_P1;SDS_P2;PMS_P1;PMS_P2;Temp;Humidity;BMP_temperature;BMP_pressure;BME280_temperature;BME280_humidity;BME280_pressure;Samples;Min_cycle;Max_cycle;Signal;HPM_P1;HPM_P2
2022/01/22 00:00:54;;;;;;;12.83;8.87;;;3.10;99.90;;;;;;5146424;28;20542;-48
2022/01/22 00:03:25;;;;;;;18.30;8.93;;;3.20;99.90;;;;;;5142707;28;20488;-50
2022/01/22 00:05:56;;;;;;;16.13;8.90;;;3.10;99.90;;;;;;5144963;28;20181;-48
2022/01/22 00:08:26;;;;;;;9.63;6.80;;;3.20;99.90;;;;;;5144423;28;20275;-49
2022/01/22 00:10:57;;;;;;;11.07;8.60;;;3.20;99.90;;;;;;5129119;28;20728;-50
2022/01/22 00:16:17;;;;;;;17.03;9.70;;;3.20;99.90;;;;;;5147920;28;20552;-49
2022/01/22 00:18:48;;;;;;;11.17;8.23;;;3.30;99.90;;;;;;5148557;28;20461;-48
2022/01/22 00:21:18;;;;;;;12.83;8.30;;;3.30;99.90;;;;;;5138875;28;20253;-48
2022/01/22 00:23:56;;;;;;;18.27;10.87;;;3.30;99.90;;;;;;5122438;28;20360;-49
2022/01/22 00:26:26;;;;;;;22.00;12.63;;;3.30;99.90;;;;;;5108529;28;20182;-48
2022/01/22 00:28:57;;;;;;;17.07;11.70;;;3.30;99.90;;;;;;5145571;28;20471;-48
2022/01/22 00:31:27;;;;;;;28.67;12.33;;;3.30;99.90;;;;;;5146195;28;20685;-47
2022/01/22 00:33:58;;;;;;;25.00;11.40;;;3.30;99.90;;;;;;5146519;28;20536;-49
2022/01/22 00:36:29;;;;;;;22.07;12.70;;;3.40;99.90;;;;;;5136745;28;20213;-48
2022/01/22 00:38:59;;;;;;;21.57;12.10;;;3.30;99.90;;;;;;5145237;28;20216;-49
2022/01/22 00:41:30;;;;;;;19.60;11.53;;;3.30;99.90;;;;;;5146576;28;20286;-48
2022/01/22 00:44:01;;;;;;;23.17;12.27;;;3.40;99.90;;;;;;5147707;28;20210;-50
2022/01/22 00:46:33;;;;;;;33.23;13.80;;;3.30;99.90;;;;;;5148403;28;20185;-49
2022/01/22 00:49:03;;;;;;;21.20;12.10;;;3.30;99.90;;;;;;5145654;28;20213;-48
2022/01/22 00:51:34;;;;;;;16.00;11.87;;;3.40;99.90;;;;;;5145745;28;20422;-49
2022/01/22 00:54:04;;;;;;;21.13;13.10;;;3.30;99.90;;;;;;5145451;28;20190;-47
2022/01/22 00:56:35;;;;;;;21.03;11.93;;;3.30;99.90;;;;;;5145367;28;20314;-49
2022/01/22 00:59:06;;;;;;;30.83;14.50;;;3.40;99.90;;;;;;5144025;28;20308;-47
2022/01/22 01:01:36;;;;;;;30.93;14.83;;;3.40;99.90;;;;;;5128960;28;20185;-48
2022/01/22 01:04:09;;;;;;;37.03;16.77;;;3.40;99.90;;;;;;5144056;28;20244;-50
2022/01/22 01:06:40;;;;;;;24.00;14.00;;;3.40;99.90;;;;;;5128282;28;20281;-50
2022/01/22 01:09:11;;;;;;;26.83;13.60;;;3.40;99.90;;;;;;5141142;28;20582;-48
2022/01/22 01:11:47;;;;;;;21.40;12.30;;;3.40;99.90;;;;;;5149541;28;20181;-49
2022/01/22 01:14:25;;;;;;;25.83;13.13;;;3.40;99.90;;;;;;5144245;28;20444;-48
2022/01/22 01:33:58;;;;;;;20.57;11.07;;;3.30;99.90;;;;;;5078395;28;20556;-49
2022/01/22 01:36:29;;;;;;;16.20;8.87;;;3.30;99.90;;;;;;5148156;28;20535;-49
2022/01/22 01:39:02;;;;;;;20.97;10.93;;;3.30;99.90;;;;;;5146102;28;20937;-48
2022/01/22 01:41:42;;;;;;;14.73;8.73;;;3.30;99.90;;;;;;5147872;28;20432;-47
2022/01/22 01:44:13;;;;;;;8.60;6.97;;;3.30;99.90;;;;;;5148062;28;20511;-48
2022/01/22 01:46:52;;;;;;;10.93;7.50;;;3.30;99.90;;;;;;5128216;28;20472;-48
2022/01/22 01:49:23;;;;;;;27.33;11.00;;;3.30;99.90;;;;;;5147305;28;20712;-50
2022/01/22 01:51:56;;;;;;;17.00;9.10;;;3.30;99.90;;;;;;5133435;28;20479;-48
2022/01/22 01:54:35;;;;;;;10.80;8.20;;;3.30;99.90;;;;;;5146966;28;20437;-48
2022/01/22 01:57:31;;;;;;;10.03;7.90;;;3.30;99.90;;;;;;5148355;28;20429;-48
2022/01/22 02:00:03;;;;;;;13.13;8.83;;;3.30;99.90;;;;;;5147711;28;20457;-48
2022/01/22 02:02:34;;;;;;;13.90;8.80;;;3.30;99.90;;;;;;5145748;28;21072;-49
2022/01/22 02:05:07;;;;;;;21.20;10.00;;;3.20;99.90;;;;;;5146205;28;20511;-49
2022/01/22 02:07:41;;;;;;;21.63;10.40;;;3.20;99.90;;;;;;5146966;28;20440;-49
2022/01/22 02:10:18;;;;;;;15.27;9.43;;;3.20;99.90;;;;;;5145712;28;20475;-50
2022/01/22 02:13:39;;;;;;;22.03;9.90;;;3.20;99.90;;;;;;5150530;28;20534;-49
2022/01/22 02:24:40;;;;;;;22.87;10.10;;;3.10;99.90;;;;;;5104980;28;20468;-48
2022/01/22 02:27:11;;;;;;;13.00;9.13;;;3.10;99.90;;;;;;5147275;28;20959;-48
2022/01/22 02:29:41;;;;;;;15.20;8.57;;;3.10;99.90;;;;;;5146377;28;20441;-49
2022/01/22 02:35:16;;;;;;;19.63;9.87;;;3.10;99.90;;;;;;5147325;28;20213;-48
2022/01/22 02:37:54;;;;;;;25.77;10.70;;;3.10;99.90;;;;;;5144914;28;20779;-48
2022/01/22 02:40:26;;;;;;;23.53;11.63;;;3.10;99.90;;;;;;5152628;28;20484;-48
2022/01/22 02:42:59;;;;;;;31.47;12.57;;;3.10;99.90;;;;;;5132903;28;20433;-50
2022/01/22 02:45:31;;;;;;;17.87;9.13;;;3.10;99.90;;;;;;5130288;28;20433;-48
2022/01/22 02:48:02;;;;;;;19.40;10.57;;;3.20;99.90;;;;;;5128840;28;20488;-49
2022/01/22 02:50:33;;;;;;;19.10;10.00;;;3.20;99.90;;;;;;5129245;28;20813;-48
2022/01/22 02:53:06;;;;;;;11.70;7.80;;;3.10;99.90;;;;;;5114073;28;20178;-48
2022/01/22 02:55:38;;;;;;;15.90;9.00;;;3.10;99.90;;;;;;5145629;28;20220;-49
2022/01/22 02:58:09;;;;;;;18.20;9.87;;;3.10;99.90;;;;;;5146214;28;20492;-49
2022/01/22 03:00:40;;;;;;;14.73;8.97;;;3.10;99.90;;;;;;5130855;28;20468;-48
2022/01/22 03:03:11;;;;;;;21.63;9.70;;;3.10;99.90;;;;;;5129030;28;20232;-48
2022/01/22 03:05:41;;;;;;;30.23;9.77;;;3.10;99.90;;;;;;5125198;28;20472;-49
2022/01/22 03:08:14;;;;;;;19.20;9.57;;;3.10;99.90;;;;;;5132894;28;20555;-48
2022/01/22 03:10:49;;;;;;;12.60;7.90;;;3.10;99.90;;;;;;5145455;28;20174;-49
2022/01/22 03:14:31;;;;;;;18.50;8.67;;;3.10;99.90;;;;;;5142915;28;20440;-48
2022/01/22 03:16:30;;;;;;;10.20;7.63;;;3.10;99.90;;;;;;5145122;28;20464;-49
2022/01/22 03:19:10;;;;;;;16.97;8.27;;;3.00;99.90;;;;;;5142862;28;20517;-47
2022/01/22 03:21:54;;;;;;;27.13;7.77;;;2.90;99.90;;;;;;5145733;28;20531;-49
2022/01/22 03:27:22;;;;;;;9.30;5.57;;;2.80;99.90;;;;;;5148592;28;20490;-47
2022/01/22 03:29:52;;;;;;;7.20;5.23;;;2.70;99.90;;;;;;5146087;28;20532;-48
2022/01/22 03:32:25;;;;;;;9.30;5.60;;;2.70;99.90;;;;;;5138016;28;20504;-48
2022/01/22 03:35:44;;;;;;;9.00;6.23;;;2.60;99.90;;;;;;5145332;28;20189;-48
2022/01/22 03:37:52;;;;;;;11.27;5.37;;;2.50;99.90;;;;;;5131202;28;20477;-49
2022/01/22 03:40:26;;;;;;;8.60;5.73;;;2.40;99.90;;;;;;5145128;28;20428;-49
2022/01/22 03:42:57;;;;;;;10.83;7.20;;;2.30;99.90;;;;;;5144743;28;21093;-48
2022/01/22 03:45:28;;;;;;;16.27;7.70;;;2.20;99.90;;;;;;5145204;28;20437;-48
2022/01/22 03:47:59;;;;;;;7.70;6.00;;;2.20;99.90;;;;;;5144694;28;20184;-48
2022/01/22 03:50:29;;;;;;;13.83;6.80;;;2.20;99.90;;;;;;5145756;28;20209;-49
2022/01/22 03:53:00;;;;;;;8.67;6.50;;;2.10;99.90;;;;;;5145786;28;20190;-50
2022/01/22 03:58:07;;;;;;;21.47;9.07;;;2.10;99.90;;;;;;5144027;28;20460;-49
2022/01/22 04:00:38;;;;;;;32.20;10.40;;;2.10;99.90;;;;;;5145439;28;20969;-48
2022/01/22 04:06:08;;;;;;;19.67;8.27;;;2.10;99.90;;;;;;5147922;28;20185;-49
2022/01/22 04:08:39;;;;;;;17.60;7.90;;;2.00;99.90;;;;;;5143939;28;20444;-49
2022/01/22 04:11:14;;;;;;;15.30;7.73;;;2.00;99.90;;;;;;5144279;28;20499;-49
2022/01/22 04:13:48;;;;;;;19.60;8.00;;;2.00;99.90;;;;;;5144425;28;20455;-49
2022/01/22 04:16:19;;;;;;;13.67;5.80;;;1.90;99.90;;;;;;5145131;28;20436;-48
2022/01/22 04:27:23;;;;;;;15.93;7.10;;;1.90;99.90;;;;;;5160869;28;20821;-50
2022/01/22 04:29:59;;;;;;;21.23;7.80;;;2.00;99.90;;;;;;5148020;28;20518;-49
2022/01/22 04:32:31;;;;;;;18.97;8.13;;;2.10;99.90;;;;;;5143914;28;20498;-49
2022/01/22 04:35:02;;;;;;;16.07;7.53;;;2.20;99.90;;;;;;5127383;28;20428;-50
2022/01/22 04:37:32;;;;;;;28.83;8.13;;;2.20;99.90;;;;;;5140797;28;20456;-50
2022/01/22 04:40:04;;;;;;;24.63;8.47;;;2.30;99.90;;;;;;5143671;28;20213;-51
2022/01/22 04:42:37;;;;;;;15.37;7.50;;;2.30;99.90;;;;;;5127113;28;20655;-50
2022/01/22 04:45:21;;;;;;;15.80;6.90;;;2.20;99.90;;;;;;5144071;28;20448;-50
2022/01/22 04:48:09;;;;;;;21.30;7.37;;;2.30;99.90;;;;;;5144806;28;20429;-49
2022/01/22 04:56:17;;;;;;;18.80;7.27;;;2.30;99.90;;;;;;5143749;28;20445;-52
2022/01/22 04:58:48;;;;;;;22.33;7.90;;;2.30;99.90;;;;;;5144989;28;20457;-50
2022/01/22 05:01:18;;;;;;;14.53;7.80;;;2.20;99.90;;;;;;5145693;28;20675;-49
2022/01/22 05:03:49;;;;;;;13.07;7.73;;;2.10;99.90;;;;;;5145074;28;20252;-50
2022/01/22 05:06:20;;;;;;;23.17;8.03;;;2.10;99.90;;;;;;5147821;28;20241;-50
2022/01/22 05:08:50;;;;;;;11.97;6.43;;;2.10;99.90;;;;;;5130401;28;20224;-50
2022/01/22 05:11:21;;;;;;;17.13;8.10;;;2.10;99.90;;;;;;5127811;28;20268;-50
2022/01/22 05:13:52;;;;;;;21.50;7.50;;;2.20;99.90;;;;;;5129749;28;20179;-51
2022/01/22 05:16:22;;;;;;;28.13;7.37;;;2.20;99.90;;;;;;5147755;28;20762;-48
2022/01/22 05:19:01;;;;;;;23.60;8.00;;;2.10;99.90;;;;;;5133690;28;20548;-51
2022/01/22 05:21:34;;;;;;;22.47;7.87;;;2.10;99.90;;;;;;5146898;28;20504;-50
2022/01/22 05:24:10;;;;;;;18.13;6.50;;;2.10;99.90;;;;;;5130353;28;20611;-49
2022/01/22 05:30:00;;;;;;;20.37;6.50;;;1.90;99.90;;;;;;5139717;28;20491;-51
2022/01/22 05:32:50;;;;;;;9.77;4.97;;;1.80;99.90;;;;;;5145702;28;20520;-49
2022/01/22 05:38:10;;;;;;;10.47;5.70;;;1.70;99.90;;;;;;5147638;28;20468;-51
2022/01/22 05:40:40;;;;;;;14.07;6.20;;;1.70;99.90;;;;;;5143517;28;20449;-50
2022/01/22 05:43:11;;;;;;;11.37;5.40;;;1.70;99.90;;;;;;5147675;28;20296;-51
2022/01/22 05:45:42;;;;;;;14.47;6.50;;;1.60;99.90;;;;;;5147967;28;20240;-51
2022/01/22 05:48:12;;;;;;;17.23;5.80;;;1.60;99.90;;;;;;5147296;28;20213;-49
2022/01/22 05:50:53;;;;;;;15.03;5.27;;;1.50;99.90;;;;;;5129918;28;20213;-50
2022/01/22 06:01:16;;;;;;;9.97;6.30;;;1.40;99.90;;;;;;5145524;28;20315;-49
2022/01/22 06:03:47;;;;;;;15.80;5.90;;;1.40;99.90;;;;;;5146676;28;20543;-50
2022/01/22 06:06:18;;;;;;;20.37;7.10;;;1.40;99.90;;;;;;5139175;28;20629;-50
2022/01/22 06:08:52;;;;;;;9.87;6.20;;;1.30;99.90;;;;;;5145613;28;20201;-50
2022/01/22 06:11:25;;;;;;;19.40;7.60;;;1.30;99.90;;;;;;5145262;28;20177;-50
2022/01/22 06:13:56;;;;;;;10.10;4.97;;;1.20;99.90;;;;;;5146406;28;20495;-50
2022/01/22 06:16:26;;;;;;;27.17;6.60;;;1.20;99.90;;;;;;5128626;28;20441;-50
2022/01/22 06:18:57;;;;;;;19.53;8.40;;;1.20;99.90;;;;;;5146265;28;20218;-50
2022/01/22 06:21:27;;;;;;;15.27;7.93;;;1.20;99.90;;;;;;5146754;28;20228;-51
2022/01/22 06:23:58;;;;;;;16.67;7.73;;;1.20;99.90;;;;;;5146028;28;20197;-50
2022/01/22 06:26:28;;;;;;;24.07;9.30;;;1.20;99.90;;;;;;5129041;28;20609;-50
2022/01/22 06:28:59;;;;;;;16.50;6.00;;;1.20;99.90;;;;;;5128960;28;20216;-51
2022/01/22 06:31:30;;;;;;;14.47;5.67;;;1.10;99.90;;;;;;5146281;28;20181;-50
2022/01/22 06:34:01;;;;;;;8.10;4.87;;;1.10;99.90;;;;;;5130102;28;20188;-50
2022/01/22 06:36:32;;;;;;;20.70;5.40;;;1.10;99.90;;;;;;5125854;28;20421;-50
2022/01/22 06:39:15;;;;;;;10.17;5.87;;;1.10;99.90;;;;;;5140021;28;20567;-49
2022/01/22 06:41:46;;;;;;;17.20;6.37;;;1.00;99.90;;;;;;5128781;28;20436;-51
2022/01/22 06:44:24;;;;;;;16.80;6.90;;;1.00;99.90;;;;;;5146834;28;21018;-52
2022/01/22 06:46:55;;;;;;;18.90;6.23;;;1.00;99.90;;;;;;5125555;28;20444;-51
2022/01/22 06:49:26;;;;;;;12.07;6.40;;;1.00;99.90;;;;;;5128059;28;20459;-51
2022/01/22 06:51:59;;;;;;;8.37;5.03;;;0.90;99.90;;;;;;5145455;28;20188;-49
2022/01/22 06:54:30;;;;;;;12.40;6.63;;;1.00;99.90;;;;;;5141751;28;20208;-51
2022/01/22 06:57:00;;;;;;;15.00;5.73;;;0.90;99.90;;;;;;5145879;28;20436;-49
2022/01/22 06:59:34;;;;;;;8.33;5.00;;;0.90;99.90;;;;;;5146431;28;20243;-50
2022/01/22 07:02:08;;;;;;;11.70;5.50;;;0.90;99.90;;;;;;5135200;28;20189;-51
2022/01/22 07:04:39;;;;;;;7.93;6.30;;;0.90;99.90;;;;;;5128308;28;20906;-50
2022/01/22 07:07:12;;;;;;;15.13;6.33;;;0.90;99.90;;;;;;5128399;28;20528;-50
2022/01/22 07:09:44;;;;;;;9.40;4.87;;;1.00;99.90;;;;;;5126936;28;20197;-50
2022/01/22 07:12:15;;;;;;;33.90;10.07;;;1.00;99.90;;;;;;5137782;28;20445;-51
2022/01/22 07:14:49;;;;;;;23.50;7.70;;;1.00;99.90;;;;;;5145369;28;20502;-49
2022/01/22 07:17:19;;;;;;;14.40;7.23;;;1.10;99.90;;;;;;5123416;28;20196;-49
2022/01/22 07:19:52;;;;;;;22.20;8.50;;;1.10;99.90;;;;;;5145110;28;20476;-51
2022/01/22 07:22:37;;;;;;;13.83;6.80;;;1.20;99.90;;;;;;5145178;28;20181;-51
2022/01/22 07:25:08;;;;;;;25.60;9.23;;;1.20;99.90;;;;;;5144591;28;20480;-51
2022/01/22 07:27:38;;;;;;;15.70;7.37;;;1.20;99.90;;;;;;5144533;28;20480;-51
2022/01/22 07:30:09;;;;;;;18.07;6.90;;;1.20;99.90;;;;;;5142777;28;20213;-51
2022/01/22 07:32:43;;;;;;;11.83;6.57;;;1.20;99.90;;;;;;5127389;28;20503;-52
2022/01/22 07:35:17;;;;;;;17.10;7.40;;;1.20;99.90;;;;;;5146822;28;20452;-51
2022/01/22 07:37:47;;;;;;;30.03;8.10;;;1.30;99.90;;;;;;5128109;28;20442;-52
2022/01/22 07:40:18;;;;;;;26.00;9.60;;;1.40;99.90;;;;;;5119940;28;20449;-51
2022/01/22 07:42:48;;;;;;;19.83;7.50;;;1.50;99.90;;;;;;5143591;28;20189;-53
2022/01/22 07:45:19;;;;;;;18.27;7.50;;;1.50;99.90;;;;;;5127226;28;20264;-50
2022/01/22 07:47:49;;;;;;;28.73;9.57;;;1.60;99.90;;;;;;5145058;28;20491;-50
2022/01/22 07:50:23;;;;;;;17.27;7.07;;;1.60;99.90;;;;;;5143663;28;20241;-51
2022/01/22 07:52:54;;;;;;;19.67;8.70;;;1.70;99.90;;;;;;5133384;28;20197;-50
2022/01/22 07:55:24;;;;;;;20.40;7.73;;;1.70;99.90;;;;;;5144386;28;20445;-51
2022/01/22 07:57:55;;;;;;;15.20;7.60;;;1.70;99.90;;;;;;5145458;28;20188;-49
2022/01/22 08:00:25;;;;;;;13.33;8.20;;;1.80;99.90;;;;;;5139432;28;20375;-50
2022/01/22 08:02:56;;;;;;;16.63;8.03;;;1.70;99.90;;;;;;5143307;28;20199;-52
2022/01/22 08:05:29;;;;;;;35.37;11.17;;;1.80;99.90;;;;;;5139029;28;20193;-50
2022/01/22 08:08:00;;;;;;;18.17;8.83;;;1.80;99.90;;;;;;5143865;28;20194;-51
2022/01/22 08:10:31;;;;;;;14.33;7.00;;;1.90;99.90;;;;;;5117059;29;20909;-51
2022/01/22 08:13:01;;;;;;;14.20;7.37;;;1.80;99.90;;;;;;5112888;28;20344;-52
2022/01/22 08:15:32;;;;;;;28.07;9.53;;;1.80;99.90;;;;;;5144471;28;20529;-51
2022/01/22 08:18:05;;;;;;;19.57;7.77;;;1.80;99.90;;;;;;5125510;28;20190;-51
2022/01/22 08:20:35;;;;;;;12.50;7.47;;;1.80;99.90;;;;;;5119789;29;20210;-51
2022/01/22 08:23:06;;;;;;;25.53;9.73;;;1.80;99.90;;;;;;5139655;28;20468;-50
2022/01/22 08:25:39;;;;;;;20.50;8.20;;;1.80;99.90;;;;;;5138256;28;20197;-52
2022/01/22 08:31:04;;;;;;;32.80;11.27;;;1.90;99.90;;;;;;5143874;28;20804;-51
2022/01/22 08:36:24;;;;;;;12.27;7.93;;;1.90;99.90;;;;;;5136660;28;20753;-51
2022/01/22 08:38:54;;;;;;;21.40;10.63;;;2.00;99.90;;;;;;5125524;28;20453;-51
2022/01/22 08:41:25;;;;;;;21.93;9.80;;;2.00;99.90;;;;;;5133433;28;20197;-51
2022/01/22 08:43:57;;;;;;;12.70;7.30;;;2.00;99.90;;;;;;5148286;28;20678;-51
2022/01/22 08:46:29;;;;;;;25.03;9.80;;;2.10;99.90;;;;;;5148124;28;20188;-51
2022/01/22 08:49:00;;;;;;;20.17;10.53;;;2.20;99.90;;;;;;5136653;28;20604;-51
2022/01/22 08:51:34;;;;;;;23.00;10.57;;;2.50;99.90;;;;;;5145528;28;20610;-51
2022/01/22 08:54:07;;;;;;;16.40;8.03;;;2.60;99.90;;;;;;5147626;28;20185;-51
2022/01/22 08:56:40;;;;;;;49.17;15.33;;;2.80;99.90;;;;;;5147504;28;20504;-50
2022/01/22 08:59:12;;;;;;;20.90;9.50;;;3.10;99.90;;;;;;5146817;28;20491;-51
2022/01/22 09:01:45;;;;;;;15.93;7.43;;;3.20;99.90;;;;;;5146139;28;20747;-52
2022/01/22 09:04:16;;;;;;;15.47;7.80;;;3.30;99.90;;;;;;5146277;28;20464;-51
2022/01/22 09:06:47;;;;;;;23.20;8.50;;;3.20;99.90;;;;;;5129603;28;20440;-50
2022/01/22 09:09:18;;;;;;;12.63;6.70;;;3.20;99.90;;;;;;5142392;28;20455;-52
2022/01/22 09:11:49;;;;;;;25.23;8.60;;;3.20;99.90;;;;;;5142023;28;20431;-51
2022/01/22 09:14:20;;;;;;;9.07;6.10;;;3.20;99.90;;;;;;5144746;28;20439;-52
2022/01/22 09:16:52;;;;;;;16.93;8.20;;;3.30;99.90;;;;;;5131493;28;20635;-52
2022/01/22 09:19:27;;;;;;;14.43;6.57;;;3.30;99.90;;;;;;5147674;28;20228;-50
2022/01/22 09:21:58;;;;;;;19.73;6.93;;;3.40;99.90;;;;;;5131731;28;20452;-52
2022/01/22 09:24:28;;;;;;;12.60;5.93;;;3.40;99.90;;;;;;5148598;28;20476;-52
2022/01/22 09:27:01;;;;;;;9.00;6.27;;;3.50;99.90;;;;;;5146880;28;20186;-51
2022/01/22 09:29:35;;;;;;;16.90;3.97;;;3.60;99.90;;;;;;5127621;28;20195;-52
2022/01/22 09:32:05;;;;;;;6.07;3.63;;;3.40;99.90;;;;;;5146362;28;20429;-52
2022/01/22 09:34:36;;;;;;;6.20;3.90;;;3.30;99.90;;;;;;5128755;28;20467;-52
2022/01/22 09:37:07;;;;;;;10.40;3.93;;;3.30;99.90;;;;;;5148041;28;20193;-52
2022/01/22 09:39:37;;;;;;;7.73;4.00;;;3.30;99.90;;;;;;5147453;28;20487;-51
2022/01/22 09:42:08;;;;;;;10.70;3.57;;;3.20;99.90;;;;;;5148148;28;20206;-52
2022/01/22 09:44:41;;;;;;;16.57;4.90;;;3.40;99.90;;;;;;5148052;28;20665;-52
2022/01/22 09:47:11;;;;;;;11.77;6.23;;;3.60;99.90;;;;;;5145844;28;20180;-51
2022/01/22 09:49:42;;;;;;;8.20;3.90;;;3.80;99.90;;;;;;5130455;28;20565;-52
2022/01/22 09:52:13;;;;;;;14.90;6.07;;;3.80;99.90;;;;;;5143223;28;20270;-53
2022/01/22 09:54:43;;;;;;;7.20;4.33;;;3.80;99.90;;;;;;5147007;28;20642;-50
2022/01/22 09:57:14;;;;;;;8.13;5.50;;;3.90;99.90;;;;;;5145420;28;20456;-53
2022/01/22 09:59:45;;;;;;;8.10;4.30;;;3.90;99.90;;;;;;5142323;28;20213;-52
2022/01/22 10:02:18;;;;;;;16.87;4.73;;;4.00;99.90;;;;;;5145181;28;20662;-52
2022/01/22 10:04:49;;;;;;;7.83;3.50;;;3.90;99.90;;;;;;5142926;28;20229;-49
2022/01/22 10:07:25;;;;;;;4.97;3.70;;;3.90;99.90;;;;;;5143681;28;21414;-52
2022/01/22 10:10:07;;;;;;;8.77;4.23;;;3.90;99.90;;;;;;5136366;28;20189;-52
2022/01/22 10:12:50;;;;;;;4.17;3.00;;;4.00;99.90;;;;;;5112649;28;20539;-52
2022/01/22 10:15:21;;;;;;;13.80;3.13;;;4.10;99.90;;;;;;5137475;28;20485;-52
2022/01/22 10:17:54;;;;;;;7.83;2.77;;;4.10;99.90;;;;;;5126664;28;20456;-52
2022/01/22 10:20:27;;;;;;;5.03;2.63;;;4.00;99.90;;;;;;5151014;28;20481;-52
2022/01/22 10:23:26;;;;;;;4.73;3.70;;;3.90;99.90;;;;;;5146420;28;20452;-51
2022/01/22 10:26:03;;;;;;;9.00;3.90;;;3.70;99.90;;;;;;5128961;28;20444;-53
2022/01/22 10:28:44;;;;;;;4.20;2.83;;;3.80;99.90;;;;;;5143429;28;20492;-52
2022/01/22 10:31:25;;;;;;;6.47;2.90;;;3.80;99.90;;;;;;5141178;28;20440;-53
2022/01/22 10:34:07;;;;;;;7.77;3.50;;;3.70;99.90;;;;;;5148147;28;20811;-54
2022/01/22 10:36:39;;;;;;;3.27;2.60;;;3.90;99.90;;;;;;5141014;28;20988;-53
2022/01/22 10:39:22;;;;;;;8.00;3.87;;;3.90;99.90;;;;;;5136309;28;20476;-54
2022/01/22 10:41:53;;;;;;;5.93;2.83;;;3.90;99.90;;;;;;5137551;28;20965;-52
2022/01/22 10:44:40;;;;;;;10.37;3.03;;;4.10;99.90;;;;;;5122519;28;20820;-51
2022/01/22 10:47:22;;;;;;;3.80;2.23;;;4.20;99.90;;;;;;5136330;28;20442;-52
2022/01/22 10:49:52;;;;;;;6.97;2.80;;;4.20;99.90;;;;;;5120057;28;20554;-53
2022/01/22 10:52:23;;;;;;;2.93;2.13;;;4.20;99.90;;;;;;5126772;28;20552;-53
2022/01/22 10:55:01;;;;;;;4.30;2.60;;;4.20;99.90;;;;;;5122214;28;20546;-54
2022/01/22 10:57:32;;;;;;;6.43;2.60;;;4.30;99.90;;;;;;5140063;28;20179;-53
2022/01/22 11:00:03;;;;;;;6.63;2.70;;;4.50;99.90;;;;;;5134321;28;20480;-52
2022/01/22 11:02:35;;;;;;;3.80;2.53;;;4.50;99.90;;;;;;5139862;28;20184;-53
2022/01/22 11:05:06;;;;;;;5.03;3.40;;;4.60;99.90;;;;;;5123933;28;20466;-54
2022/01/22 11:07:37;;;;;;;4.87;3.00;;;4.70;99.90;;;;;;5146260;28;20697;-52
2022/01/22 11:10:08;;;;;;;1.93;1.80;;;4.60;99.90;;;;;;5147630;28;20894;-54
2022/01/22 11:12:38;;;;;;;6.07;2.40;;;4.60;99.90;;;;;;5123825;28;20193;-52
2022/01/22 11:15:09;;;;;;;2.03;1.83;;;4.60;99.90;;;;;;5137272;28;20251;-53
2022/01/22 11:17:40;;;;;;;2.77;2.00;;;4.70;99.90;;;;;;5125851;28;20538;-53
2022/01/22 11:20:13;;;;;;;1.97;1.90;;;4.90;99.90;;;;;;5123054;28;20238;-54
2022/01/22 11:22:44;;;;;;;6.83;2.10;;;5.00;99.90;;;;;;5139319;28;20517;-50
2022/01/22 11:25:15;;;;;;;2.33;2.13;;;4.90;99.90;;;;;;5141993;28;20556;-52
2022/01/22 11:27:47;;;;;;;4.27;1.83;;;4.80;99.90;;;;;;5136361;28;20455;-53
2022/01/22 11:30:19;;;;;;;4.17;2.20;;;4.60;99.90;;;;;;5122491;28;21480;-52
2022/01/22 11:32:57;;;;;;;1.80;1.70;;;4.50;99.90;;;;;;5142078;28;20440;-51
2022/01/22 11:35:44;;;;;;;9.60;2.43;;;4.30;99.90;;;;;;5144336;28;20442;-53
2022/01/22 11:38:33;;;;;;;4.57;2.40;;;4.20;99.90;;;;;;5138724;28;20446;-54
2022/01/22 11:41:04;;;;;;;4.93;2.30;;;4.40;99.90;;;;;;5121641;28;20792;-54
2022/01/22 11:44:06;;;;;;;4.60;2.13;;;4.40;99.90;;;;;;5150107;28;20458;-50
2022/01/22 11:46:58;;;;;;;1.73;1.60;;;4.50;99.90;;;;;;5135578;28;20259;-52
2022/01/22 11:49:30;;;;;;;6.43;2.30;;;4.50;99.90;;;;;;5132645;28;20462;-51
2022/01/22 11:52:10;;;;;;;5.60;1.27;;;4.60;99.90;;;;;;5137774;28;20538;-51
2022/01/22 11:54:54;;;;;;;4.93;1.60;;;4.40;99.90;;;;;;5136128;28;20939;-51
2022/01/22 11:57:31;;;;;;;2.60;1.60;;;4.50;99.90;;;;;;5139419;28;20443;-53
2022/01/22 12:00:25;;;;;;;3.17;1.90;;;4.60;99.90;;;;;;5134203;28;20552;-52
2022/01/22 12:03:08;;;;;;;2.50;2.27;;;4.60;99.90;;;;;;5137526;28;20451;-53
2022/01/22 12:05:54;;;;;;;2.37;2.17;;;4.60;99.90;;;;;;5139061;28;20533;-52
2022/01/22 12:08:25;;;;;;;5.93;2.80;;;4.60;99.90;;;;;;5139974;28;20980;-53
2022/01/22 12:16:41;;;;;;;9.97;2.53;;;4.90;99.90;;;;;;5140846;28;20430;-51
2022/01/22 12:19:36;;;;;;;5.37;2.20;;;4.80;99.90;;;;;;5128205;28;20478;-53
2022/01/22 12:22:30;;;;;;;2.20;1.80;;;4.90;99.90;;;;;;5141952;28;20447;-51
2022/01/22 12:25:14;;;;;;;3.73;1.60;;;5.00;99.90;;;;;;5127184;28;20473;-53
2022/01/22 12:27:46;;;;;;;2.40;1.80;;;5.10;99.90;;;;;;5113058;28;20438;-50
2022/01/22 12:30:36;;;;;;;8.70;3.00;;;5.10;99.90;;;;;;5146328;28;20437;-54
2022/01/22 12:33:11;;;;;;;5.43;2.60;;;5.10;99.90;;;;;;5139693;28;20482;-52
2022/01/22 12:35:47;;;;;;;3.27;2.27;;;5.00;99.90;;;;;;5118001;28;20450;-50
2022/01/22 12:38:36;;;;;;;9.47;4.73;;;4.90;99.90;;;;;;5120681;28;20469;-52
2022/01/22 12:44:40;;;;;;;7.47;3.50;;;4.80;99.90;;;;;;5137959;28;20479;-54
2022/01/22 12:47:12;;;;;;;3.30;2.80;;;4.80;99.90;;;;;;5140617;28;20454;-52
2022/01/22 12:49:43;;;;;;;5.00;2.20;;;4.80;99.90;;;;;;5142346;28;20562;-54
2022/01/22 12:52:13;;;;;;;12.80;6.70;;;4.90;99.90;;;;;;5138738;28;20625;-53
2022/01/22 12:54:47;;;;;;;6.43;4.30;;;4.90;99.90;;;;;;5141031;28;20287;-51
2022/01/22 12:57:19;;;;;;;13.23;7.40;;;4.90;99.90;;;;;;5134093;28;20233;-52
2022/01/22 13:00:01;;;;;;;7.20;2.63;;;4.90;99.90;;;;;;5123630;28;20462;-55
2022/01/22 13:02:43;;;;;;;2.40;2.20;;;4.80;99.90;;;;;;5137692;28;20450;-54
2022/01/22 13:05:17;;;;;;;2.50;2.30;;;4.90;99.90;;;;;;5140046;28;20496;-51
2022/01/22 13:07:55;;;;;;;2.07;1.97;;;4.80;99.90;;;;;;5134466;28;20553;-52
2022/01/22 13:10:32;;;;;;;6.00;2.00;;;4.80;99.90;;;;;;5119509;28;20459;-53
2022/01/22 13:13:04;;;;;;;9.40;1.67;;;4.80;99.90;;;;;;5116555;28;20428;-53
2022/01/22 13:15:36;;;;;;;4.93;1.97;;;4.80;99.90;;;;;;5135431;28;20534;-52
2022/01/22 13:18:07;;;;;;;4.50;2.60;;;4.70;99.90;;;;;;5137215;28;20446;-51
2022/01/22 13:20:38;;;;;;;4.80;2.60;;;4.60;99.90;;;;;;5138826;28;20450;-52
2022/01/22 13:23:16;;;;;;;4.97;2.97;;;4.60;99.90;;;;;;5119688;28;20261;-51
2022/01/22 13:25:47;;;;;;;5.57;2.57;;;4.60;99.90;;;;;;5137681;28;20281;-52
2022/01/22 13:28:17;;;;;;;11.87;4.80;;;4.60;99.90;;;;;;5132423;28;20441;-53
2022/01/22 13:30:56;;;;;;;9.37;5.00;;;4.60;99.90;;;;;;5117688;28;20190;-53
2022/01/22 13:49:57;;;;;;;5.90;3.40;;;4.50;99.90;;;;;;5139840;28;20549;-54
2022/01/22 13:52:29;;;;;;;3.53;3.27;;;4.50;99.90;;;;;;5121953;28;20673;-52
2022/01/22 13:54:59;;;;;;;31.97;16.30;;;4.50;99.90;;;;;;5137437;28;20438;-52
2022/01/22 13:57:35;;;;;;;11.63;5.80;;;4.50;99.90;;;;;;5127974;28;20446;-52
2022/01/22 14:00:16;;;;;;;49.37;19.43;;;4.40;99.90;;;;;;5142384;28;20301;-53
2022/01/22 14:05:37;;;;;;;7.13;4.20;;;4.40;99.90;;;;;;5138509;28;20534;-55
2022/01/22 14:08:09;;;;;;;7.57;4.33;;;4.30;99.90;;;;;;5137454;28;20443;-54
2022/01/22 14:10:41;;;;;;;45.10;18.53;;;4.20;99.90;;;;;;5121513;28;20183;-52
2022/01/22 14:13:13;;;;;;;17.97;7.57;;;4.20;99.90;;;;;;5118139;28;20494;-52
2022/01/22 14:15:45;;;;;;;4.97;3.93;;;4.20;99.90;;;;;;5123075;28;20435;-51
2022/01/22 14:18:22;;;;;;;34.37;12.13;;;4.10;99.90;;;;;;5115647;28;20453;-53
2022/01/22 14:21:13;;;;;;;11.00;3.33;;;4.00;99.90;;;;;;5143248;28;20447;-52
2022/01/22 14:23:45;;;;;;;4.73;3.53;;;4.00;99.90;;;;;;5122818;28;20984;-53
2022/01/22 14:26:27;;;;;;;4.57;2.87;;;4.00;99.90;;;;;;5122474;28;20443;-53
2022/01/22 14:29:07;;;;;;;4.00;2.50;;;4.10;99.90;;;;;;5141586;28;20481;-51
2022/01/22 14:31:41;;;;;;;3.23;2.30;;;4.10;99.90;;;;;;5134255;28;20472;-54
2022/01/22 14:34:28;;;;;;;5.77;2.30;;;4.10;99.90;;;;;;5133330;28;20435;-53
2022/01/22 14:37:01;;;;;;;17.10;7.70;;;4.00;99.90;;;;;;5138673;28;21024;-54
2022/01/22 14:45:34;;;;;;;5.03;3.10;;;4.00;99.90;;;;;;5141913;28;20523;-54
2022/01/22 14:48:06;;;;;;;4.27;3.00;;;4.00;99.90;;;;;;5138787;28;21008;-53
2022/01/22 14:50:36;;;;;;;6.87;2.53;;;4.00;99.90;;;;;;5124070;28;20444;-53
2022/01/22 14:53:07;;;;;;;2.87;2.57;;;4.10;99.90;;;;;;5125354;28;21693;-50
2022/01/22 14:55:48;;;;;;;12.50;4.60;;;4.00;99.90;;;;;;5122335;28;20614;-53
2022/01/22 14:58:18;;;;;;;5.10;3.10;;;4.00;99.90;;;;;;5134340;28;20178;-49
2022/01/22 15:00:49;;;;;;;5.07;3.40;;;3.90;99.90;;;;;;5124186;28;20450;-50
2022/01/22 15:03:20;;;;;;;17.90;6.40;;;3.80;99.90;;;;;;5131665;28;20197;-51
2022/01/22 15:05:50;;;;;;;12.77;6.93;;;3.80;99.90;;;;;;5131423;28;20285;-50
2022/01/22 15:08:21;;;;;;;14.53;7.17;;;3.70;99.90;;;;;;5140725;28;20197;-54
2022/01/22 15:10:51;;;;;;;10.10;5.00;;;3.70;99.90;;;;;;5141922;28;20185;-53